createdAt,value
2023-04-07T00:00:25.426Z,7.76
2023-04-07T00:02:52.199Z,7.71
2023-04-07T00:05:19.082Z,7.87
2023-04-07T00:07:55.836Z,7.80
2023-04-07T00:10:23.980Z,7.80
2023-04-07T00:12:50.908Z,7.80
2023-04-07T00:15:17.551Z,7.67
2023-04-07T00:17:44.401Z,7.72
2023-04-07T00:20:11.690Z,7.82
2023-04-07T00:22:38.221Z,7.89
2023-04-07T00:25:05.368Z,7.87
2023-04-07T00:27:32.081Z,7.83
2023-04-07T00:29:58.688Z,7.89
2023-04-07T00:32:25.407Z,7.64
2023-04-07T00:34:52.428Z,7.86
2023-04-07T00:37:19.444Z,7.81
2023-04-07T00:39:46.781Z,7.89
2023-04-07T00:42:13.583Z,7.79
2023-04-07T00:44:40.529Z,7.94
2023-04-07T00:47:07.324Z,7.53
2023-04-07T00:49:34.358Z,7.85
2023-04-07T00:52:01.326Z,7.80
2023-04-07T00:54:30.281Z,7.66
2023-04-07T00:56:58.451Z,7.78
2023-04-07T00:59:25.539Z,7.89
2023-04-07T01:02:16.509Z,7.82
2023-04-07T01:05:13.122Z,7.82
2023-04-07T01:07:49.672Z,7.86
2023-04-07T01:10:22.326Z,7.75
2023-04-07T01:13:02.781Z,7.87
2023-04-07T01:15:33.927Z,7.82
2023-04-07T01:18:24.855Z,7.83
2023-04-07T01:20:54.665Z,7.76
2023-04-07T01:23:39.577Z,7.82
2023-04-07T01:26:28.362Z,7.85
2023-04-07T01:29:26.654Z,7.63
2023-04-07T01:31:58.502Z,7.83
2023-04-07T01:34:29.736Z,7.71
2023-04-07T01:36:59.175Z,7.68
2023-04-07T01:39:27.974Z,7.79
2023-04-07T01:41:56.233Z,7.83
2023-04-07T01:44:24.709Z,7.67
2023-04-07T01:46:51.744Z,7.84
2023-04-07T01:49:19.486Z,7.72
2023-04-07T01:51:50.669Z,7.84
2023-04-07T01:54:18.452Z,7.83
2023-04-07T01:56:45.372Z,7.69
2023-04-07T01:59:12.360Z,7.85
2023-04-07T02:01:39.204Z,7.75
2023-04-07T02:04:11.968Z,7.84
2023-04-07T02:06:53.354Z,7.67
2023-04-07T02:09:22.824Z,7.86
2023-04-07T02:11:52.358Z,7.83
2023-04-07T02:14:21.414Z,7.81
2023-04-07T02:16:50.162Z,7.79
2023-04-07T02:19:17.236Z,7.68
2023-04-07T02:21:45.802Z,7.84
2023-04-07T02:24:13.095Z,7.86
2023-04-07T02:26:39.894Z,7.84
2023-04-07T02:29:06.922Z,7.94
2023-04-07T02:31:33.608Z,7.92
2023-04-07T02:34:00.259Z,7.87
2023-04-07T02:36:27.277Z,7.82
2023-04-07T02:38:54.577Z,7.84
2023-04-07T02:41:21.536Z,7.92
2023-04-07T02:43:48.168Z,7.91
2023-04-07T02:46:16.443Z,7.97
2023-04-07T02:48:43.411Z,7.98
2023-04-07T02:51:10.008Z,7.96
2023-04-07T02:53:36.798Z,7.77
2023-04-07T02:56:03.632Z,7.88
2023-04-07T02:58:30.259Z,7.78
2023-04-07T03:00:56.900Z,7.97
2023-04-07T03:03:23.839Z,7.87
2023-04-07T03:05:50.533Z,7.98
2023-04-07T03:08:17.270Z,7.94
2023-04-07T03:10:44.053Z,7.92
2023-04-07T03:13:12.738Z,7.87
2023-04-07T03:15:39.420Z,7.92
2023-04-07T03:18:06.181Z,7.85
2023-04-07T03:20:32.888Z,7.88
2023-04-07T03:22:59.505Z,7.84
2023-04-07T03:25:27.620Z,7.85
2023-04-07T03:27:54.311Z,7.90
2023-04-07T03:30:21.051Z,7.93
2023-04-07T03:32:47.790Z,7.89
2023-04-07T03:35:14.427Z,7.71
2023-04-07T03:37:41.012Z,7.89
2023-04-07T03:40:08.168Z,7.46
2023-04-07T03:42:34.787Z,7.70
2023-04-07T03:45:01.759Z,7.82
2023-04-07T03:47:28.493Z,7.76
2023-04-07T03:49:55.336Z,7.67
2023-04-07T03:52:22.177Z,7.70
2023-04-07T03:54:48.820Z,7.71
2023-04-07T03:57:15.415Z,7.84
2023-04-07T03:59:42.632Z,7.83
2023-04-07T04:02:09.379Z,7.80
2023-04-07T04:04:36.108Z,7.80
2023-04-07T04:07:02.824Z,7.85
2023-04-07T04:09:29.784Z,7.78
2023-04-07T04:11:57.144Z,7.86
2023-04-07T04:14:23.912Z,7.86
2023-04-07T04:16:50.768Z,7.80
2023-04-07T04:19:17.373Z,7.77
2023-04-07T04:21:44.124Z,7.71
2023-04-07T04:24:10.827Z,7.76
2023-04-07T04:26:37.435Z,7.74
2023-04-07T04:29:04.326Z,7.79
2023-04-07T04:31:31.036Z,7.73
2023-04-07T04:33:57.625Z,7.74
2023-04-07T04:36:24.253Z,7.42
2023-04-07T04:38:51.048Z,7.66
2023-04-07T04:41:17.664Z,7.77
2023-04-07T04:43:45.238Z,7.75
2023-04-07T04:46:11.898Z,7.70
2023-04-07T04:48:38.488Z,7.55
2023-04-07T04:51:05.418Z,7.72
2023-04-07T04:53:32.604Z,7.70
2023-04-07T04:55:59.150Z,7.57
2023-04-07T04:58:26.448Z,7.65
2023-04-07T05:01:00.416Z,7.53
2023-04-07T05:03:29.299Z,7.60
2023-04-07T05:05:56.256Z,7.55
2023-04-07T05:08:23.229Z,7.47
2023-04-07T05:10:50.025Z,7.49
2023-04-07T05:13:16.689Z,7.59
2023-04-07T05:15:43.486Z,7.57
2023-04-07T05:18:10.144Z,7.55
2023-04-07T05:20:36.800Z,7.52
2023-04-07T05:23:03.645Z,7.62
2023-04-07T05:25:30.783Z,7.63
2023-04-07T05:27:59.680Z,7.65
2023-04-07T05:30:26.407Z,7.59
2023-04-07T05:32:54.120Z,7.64
2023-04-07T05:35:20.918Z,7.27
2023-04-07T05:37:47.573Z,7.58
2023-04-07T05:40:14.593Z,7.51
2023-04-07T05:42:41.579Z,7.51
2023-04-07T05:45:09.797Z,7.64
2023-04-07T05:47:36.401Z,7.68
2023-04-07T05:50:03.163Z,7.54
2023-04-07T05:52:30.364Z,7.52
2023-04-07T05:54:57.193Z,7.72
2023-04-07T05:57:23.885Z,7.63
2023-04-07T05:59:50.705Z,7.69
2023-04-07T06:02:17.524Z,7.81
2023-04-07T06:04:44.191Z,7.78
2023-04-07T06:07:10.992Z,7.72
2023-04-07T06:09:37.765Z,7.81
2023-04-07T06:12:06.820Z,7.83
2023-04-07T06:14:33.585Z,7.90
2023-04-07T06:17:00.504Z,7.82
2023-04-07T06:19:30.072Z,7.73
2023-04-07T06:21:56.796Z,7.92
2023-04-07T06:24:25.337Z,7.80
2023-04-07T06:26:55.147Z,7.97
2023-04-07T06:29:21.900Z,7.99
2023-04-07T06:31:48.695Z,7.91
2023-04-07T06:34:15.284Z,8.04
2023-04-07T06:36:42.033Z,8.03
2023-04-07T06:39:08.783Z,8.11
2023-04-07T06:41:35.575Z,8.00
2023-04-07T06:44:02.273Z,8.16
2023-04-07T06:46:29.204Z,8.16
2023-04-07T06:48:56.017Z,8.21
2023-04-07T06:51:22.709Z,8.28
2023-04-07T06:53:49.814Z,7.95
2023-04-07T06:56:16.662Z,8.24
2023-04-07T06:58:43.434Z,8.33
2023-04-07T07:01:10.469Z,8.39
2023-04-07T07:03:37.120Z,8.42
2023-04-07T07:06:03.916Z,8.52
2023-04-07T07:08:31.063Z,8.49
2023-04-07T07:10:58.411Z,8.61
2023-04-07T07:13:26.786Z,8.63
2023-04-07T07:15:54.243Z,8.65
2023-04-07T07:18:20.949Z,8.52
2023-04-07T07:20:47.803Z,8.63
2023-04-07T07:23:14.688Z,8.75
2023-04-07T07:25:41.211Z,8.65
2023-04-07T07:28:09.333Z,8.34
2023-04-07T07:30:36.332Z,8.58
2023-04-07T07:33:02.991Z,8.70
2023-04-07T07:35:30.192Z,8.74
2023-04-07T07:37:56.857Z,8.79
2023-04-07T07:40:23.554Z,8.87
2023-04-07T07:42:50.296Z,8.71
2023-04-07T07:45:19.661Z,8.90
2023-04-07T07:47:46.597Z,8.84
2023-04-07T07:50:13.380Z,8.85
2023-04-07T07:52:40.159Z,8.93
2023-04-07T07:55:07.043Z,8.99
2023-04-07T07:57:33.812Z,8.83
2023-04-07T08:00:00.471Z,8.95
2023-04-07T08:02:31.356Z,8.63
2023-04-07T08:04:58.614Z,8.91
2023-04-07T08:07:25.729Z,8.93
2023-04-07T08:09:52.413Z,8.82
2023-04-07T08:12:19.039Z,9.03
2023-04-07T08:14:45.756Z,8.42
2023-04-07T08:17:12.653Z,9.08
2023-04-07T08:19:39.738Z,9.15
2023-04-07T08:22:06.469Z,9.14
2023-04-07T08:24:33.254Z,9.19
2023-04-07T08:26:59.919Z,9.25
2023-04-07T08:29:26.717Z,9.34
2023-04-07T08:31:53.439Z,9.38
2023-04-07T08:34:21.307Z,9.42
2023-04-07T08:36:48.239Z,9.50
2023-04-07T08:39:14.846Z,9.47
2023-04-07T08:41:42.530Z,9.53
2023-04-07T08:44:10.543Z,9.67
2023-04-07T08:46:41.394Z,9.63
2023-04-07T08:49:14.062Z,9.76
2023-04-07T08:51:47.349Z,9.75
2023-04-07T08:54:16.452Z,9.83
2023-04-07T08:56:43.631Z,9.87
2023-04-07T08:59:13.192Z,9.98
2023-04-07T09:01:40.672Z,9.84
2023-04-07T09:04:09.472Z,10.08
2023-04-07T09:06:36.942Z,10.34
2023-04-07T09:09:06.348Z,10.43
2023-04-07T09:11:38.262Z,10.55
2023-04-07T09:14:05.056Z,10.39
2023-04-07T09:16:31.911Z,10.46
2023-04-07T09:18:59.511Z,10.32
2023-04-07T09:21:27.438Z,10.29
2023-04-07T09:23:54.462Z,10.26
2023-04-07T09:26:25.666Z,10.24
2023-04-07T09:28:58.457Z,10.21
2023-04-07T09:31:50.544Z,10.32
2023-04-07T09:34:31.931Z,10.29
2023-04-07T09:36:59.069Z,10.47
2023-04-07T09:39:26.147Z,10.51
2023-04-07T09:41:53.462Z,10.68
2023-04-07T09:44:21.594Z,10.55
2023-04-07T09:46:50.982Z,10.78
2023-04-07T09:49:17.957Z,10.53
2023-04-07T09:52:01.547Z,10.86
2023-04-07T09:54:33.584Z,10.73
2023-04-07T09:57:02.480Z,10.65
2023-04-07T09:59:30.916Z,10.39
2023-04-07T10:01:58.219Z,10.59
2023-04-07T10:04:25.888Z,10.57
2023-04-07T10:06:54.407Z,10.40
2023-04-07T10:09:26.320Z,10.54
2023-04-07T10:11:54.787Z,10.48
2023-04-07T10:14:24.714Z,10.43
2023-04-07T10:16:52.154Z,10.42
2023-04-07T10:19:20.012Z,10.39
2023-04-07T10:21:50.441Z,10.50
2023-04-07T10:24:39.155Z,10.73
2023-04-07T10:27:11.627Z,10.81
2023-04-07T10:29:42.695Z,10.82
2023-04-07T10:32:09.786Z,10.78
2023-04-07T10:34:53.621Z,10.81
2023-04-07T10:37:22.589Z,10.71
2023-04-07T10:39:51.333Z,10.76
2023-04-07T10:42:39.731Z,10.84
2023-04-07T10:45:10.652Z,10.86
2023-04-07T10:47:59.287Z,11.06
2023-04-07T10:50:26.034Z,11.20
2023-04-07T10:53:10.117Z,11.36
2023-04-07T10:55:47.217Z,11.38
2023-04-07T10:58:16.516Z,11.51
2023-04-07T11:01:04.802Z,11.36
2023-04-07T11:03:37.032Z,11.45
2023-04-07T11:06:05.022Z,11.44
2023-04-07T11:08:48.387Z,11.44
2023-04-07T11:11:34.514Z,11.48
2023-04-07T11:14:01.708Z,11.33
2023-04-07T11:16:36.991Z,11.53
2023-04-07T11:19:03.778Z,11.52
2023-04-07T11:21:30.568Z,11.64
2023-04-07T11:23:57.239Z,11.73
2023-04-07T11:26:24.040Z,11.61
2023-04-07T11:28:55.895Z,11.87
2023-04-07T11:31:23.617Z,11.89
2023-04-07T11:33:55.362Z,11.70
2023-04-07T11:36:32.388Z,11.90
2023-04-07T11:39:00.099Z,11.92
2023-04-07T11:41:28.818Z,11.86
2023-04-07T11:44:09.272Z,11.82
2023-04-07T11:46:36.892Z,11.91
2023-04-07T11:49:29.907Z,11.85
2023-04-07T11:52:09.280Z,12.00
2023-04-07T11:54:53.391Z,12.10
2023-04-07T11:57:27.871Z,12.13
2023-04-07T12:00:12.388Z,12.13
2023-04-07T12:02:39.271Z,12.06
2023-04-07T12:05:06.878Z,12.23
2023-04-07T12:07:34.038Z,12.25
2023-04-07T12:10:21.267Z,12.48
2023-04-07T12:12:49.254Z,12.55
2023-04-07T12:15:16.636Z,12.65
2023-04-07T12:17:47.803Z,12.82
2023-04-07T12:20:16.191Z,12.92
2023-04-07T12:22:42.955Z,12.90
2023-04-07T12:25:09.665Z,12.79
2023-04-07T12:27:43.185Z,12.78
2023-04-07T12:30:12.712Z,12.69
2023-04-07T12:32:40.127Z,13.02
2023-04-07T12:35:06.985Z,12.91
2023-04-07T12:37:33.684Z,12.90
2023-04-07T12:40:00.657Z,13.01
2023-04-07T12:42:27.985Z,13.23
2023-04-07T12:44:54.715Z,13.12
2023-04-07T12:47:22.133Z,13.21
2023-04-07T12:49:50.133Z,13.16
2023-04-07T12:52:17.119Z,13.01
2023-04-07T12:54:45.537Z,13.01
2023-04-07T12:57:12.423Z,13.13
2023-04-07T12:59:39.262Z,13.17
2023-04-07T13:02:06.575Z,13.20
2023-04-07T13:04:33.586Z,13.15
2023-04-07T13:07:02.813Z,13.49
2023-04-07T13:09:29.644Z,13.52
2023-04-07T13:11:57.696Z,13.49
2023-04-07T13:14:24.563Z,13.34
2023-04-07T13:16:51.587Z,13.59
2023-04-07T13:19:18.550Z,13.53
2023-04-07T13:21:46.742Z,13.43
2023-04-07T13:24:16.448Z,13.81
2023-04-07T13:26:43.199Z,13.88
2023-04-07T13:29:10.074Z,13.81
2023-04-07T13:31:37.244Z,13.73
2023-04-07T13:34:04.193Z,13.72
2023-04-07T13:36:31.185Z,13.81
2023-04-07T13:38:58.185Z,13.50
2023-04-07T13:41:24.869Z,13.61
2023-04-07T13:43:51.718Z,13.78
2023-04-07T13:48:49.533Z,13.79
2023-04-07T13:51:16.348Z,13.96
2023-04-07T13:53:43.325Z,14.06
2023-04-07T13:56:10.475Z,14.09
2023-04-07T13:58:37.211Z,14.12
2023-04-07T14:01:04.497Z,14.03
2023-04-07T14:03:31.934Z,14.14
2023-04-07T14:06:01.156Z,14.20
2023-04-07T14:08:28.386Z,14.23
2023-04-07T14:10:55.148Z,14.16
2023-04-07T14:13:22.156Z,14.10
2023-04-07T14:16:00.567Z,14.12
2023-04-07T14:18:28.384Z,14.20
2023-04-07T14:20:56.544Z,14.27
2023-04-07T14:23:36.602Z,14.23
2023-04-07T14:26:05.819Z,14.28
2023-04-07T14:28:33.535Z,14.20
2023-04-07T14:31:00.183Z,14.04
2023-04-07T14:33:26.914Z,14.16
2023-04-07T14:35:53.616Z,13.92
2023-04-07T14:38:24.267Z,14.10
2023-04-07T14:40:51.432Z,13.83
2023-04-07T14:43:18.202Z,13.97
2023-04-07T14:45:45.555Z,13.85
2023-04-07T14:48:12.257Z,13.94
2023-04-07T14:50:39.090Z,13.75
2023-04-07T14:53:06.577Z,13.72
2023-04-07T14:55:34.369Z,13.78
2023-04-07T14:58:01.045Z,13.68
2023-04-07T15:00:28.787Z,13.68
2023-04-07T15:02:56.285Z,13.52
2023-04-07T15:05:23.207Z,13.65
2023-04-07T15:07:50.802Z,13.34
2023-04-07T15:10:18.544Z,13.44
2023-04-07T15:12:51.733Z,13.73
2023-04-07T15:15:18.635Z,13.73
2023-04-07T15:17:45.685Z,13.65
2023-04-07T15:20:13.284Z,13.68
2023-04-07T15:22:40.407Z,13.63
2023-04-07T15:25:07.935Z,13.50
2023-04-07T15:27:34.923Z,13.62
2023-04-07T15:30:01.670Z,13.45
2023-04-07T15:32:31.170Z,13.57
2023-04-07T15:34:58.051Z,13.65
2023-04-07T15:37:25.400Z,13.63
2023-04-07T15:39:52.352Z,13.53
2023-04-07T15:42:19.165Z,13.40
2023-04-07T15:44:45.836Z,13.48
2023-04-07T15:47:12.851Z,13.33
2023-04-07T15:49:39.789Z,13.12
2023-04-07T15:52:06.979Z,13.38
2023-04-07T15:54:33.796Z,13.33
2023-04-07T15:57:01.271Z,13.27
2023-04-07T15:59:30.751Z,13.43
2023-04-07T16:01:57.762Z,13.51
2023-04-07T16:04:24.694Z,13.43
2023-04-07T16:06:51.320Z,13.46
2023-04-07T16:09:17.963Z,13.52
2023-04-07T16:11:45.001Z,13.35
2023-04-07T16:14:11.607Z,13.50
2023-04-07T16:16:40.885Z,13.44
2023-04-07T16:19:07.970Z,13.41
2023-04-07T16:21:34.785Z,13.04
2023-04-07T16:24:01.462Z,13.38
2023-04-07T16:26:28.355Z,13.22
2023-04-07T16:28:55.058Z,13.34
2023-04-07T16:31:21.687Z,13.34
2023-04-07T16:33:50.794Z,13.18
2023-04-07T16:36:17.594Z,13.07
2023-04-07T16:38:44.370Z,13.33
2023-04-07T16:41:11.443Z,13.30
2023-04-07T16:43:38.026Z,13.27
2023-04-07T16:46:06.194Z,13.21
2023-04-07T16:48:33.321Z,13.03
2023-04-07T16:51:00.045Z,13.01
2023-04-07T16:53:26.688Z,12.99
2023-04-07T16:55:53.478Z,13.01
2023-04-07T16:58:20.165Z,12.93
2023-04-07T17:00:46.858Z,12.77
2023-04-07T17:03:15.456Z,12.76
2023-04-07T17:05:44.975Z,12.68
2023-04-07T17:08:13.361Z,12.59
2023-04-07T17:10:43.289Z,12.51
2023-04-07T17:13:12.826Z,12.41
2023-04-07T17:15:42.037Z,12.39
2023-04-07T17:18:11.774Z,12.33
2023-04-07T17:20:41.128Z,12.23
2023-04-07T17:23:13.181Z,12.19
2023-04-07T17:25:42.596Z,12.14
2023-04-07T17:28:13.610Z,11.79
2023-04-07T17:30:42.096Z,11.93
2023-04-07T17:33:10.219Z,11.80
2023-04-07T17:35:41.650Z,11.90
2023-04-07T17:38:09.781Z,11.77
2023-04-07T17:40:36.562Z,11.58
2023-04-07T17:43:03.735Z,11.61
2023-04-07T17:45:30.879Z,11.55
2023-04-07T17:47:58.141Z,11.48
2023-04-07T17:50:24.831Z,10.90
2023-04-07T17:52:52.035Z,11.45
2023-04-07T17:55:19.062Z,11.27
2023-04-07T17:57:46.082Z,11.17
2023-04-07T18:00:13.140Z,11.27
2023-04-07T18:02:40.580Z,11.05
2023-04-07T18:05:07.848Z,11.18
2023-04-07T18:07:34.570Z,10.76
2023-04-07T18:10:02.117Z,11.08
2023-04-07T18:12:28.858Z,10.85
2023-04-07T18:14:55.683Z,10.94
2023-04-07T18:17:22.391Z,10.64
2023-04-07T18:19:49.338Z,10.79
2023-04-07T18:22:16.317Z,10.72
2023-04-07T18:24:43.371Z,10.56
2023-04-07T18:27:10.364Z,10.70
2023-04-07T18:29:37.037Z,10.47
2023-04-07T18:32:03.676Z,10.51
2023-04-07T18:34:30.634Z,10.42
2023-04-07T18:36:57.309Z,10.45
2023-04-07T18:39:27.898Z,10.36
2023-04-07T18:41:55.109Z,10.38
2023-04-07T18:44:21.770Z,10.28
2023-04-07T18:46:48.515Z,10.09
2023-04-07T18:49:15.848Z,10.18
2023-04-07T18:51:44.531Z,9.93
2023-04-07T18:54:12.347Z,10.02
2023-04-07T18:56:39.113Z,10.16
2023-04-07T18:59:08.013Z,9.93
2023-04-07T19:01:34.910Z,10.07
2023-04-07T19:04:01.884Z,9.93
2023-04-07T19:06:30.477Z,9.84
2023-04-07T19:08:57.788Z,9.91
2023-04-07T19:11:24.895Z,9.91
2023-04-07T19:13:53.317Z,9.80
2023-04-07T19:16:21.846Z,9.39
2023-04-07T19:18:48.663Z,9.75
2023-04-07T19:21:15.336Z,9.64
2023-04-07T19:23:42.283Z,9.41
2023-04-07T19:26:13.325Z,9.46
2023-04-07T19:28:41.272Z,9.52
2023-04-07T19:31:08.969Z,9.35
2023-04-07T19:33:36.004Z,9.24
2023-04-07T19:36:03.998Z,9.22
2023-04-07T19:38:30.629Z,9.23
2023-04-07T19:40:57.349Z,9.17
2023-04-07T19:43:24.056Z,9.17
2023-04-07T19:45:50.812Z,9.07
2023-04-07T19:48:17.672Z,8.84
2023-04-07T19:50:49.605Z,8.97
2023-04-07T19:53:16.771Z,8.65
2023-04-07T19:55:46.974Z,8.80
2023-04-07T19:58:13.676Z,8.70
2023-04-07T20:00:40.744Z,8.58
2023-04-07T20:03:07.853Z,8.54
2023-04-07T20:05:34.747Z,8.49
2023-04-07T20:08:01.869Z,8.53
2023-04-07T20:10:28.777Z,8.49
2023-04-07T20:12:55.921Z,8.30
2023-04-07T20:15:24.568Z,8.36
2023-04-07T20:17:51.880Z,8.33
2023-04-07T20:20:18.683Z,8.33
2023-04-07T20:22:45.742Z,8.12
2023-04-07T20:25:12.543Z,8.24
2023-04-07T20:27:39.841Z,8.06
2023-04-07T20:30:07.187Z,8.06
2023-04-07T20:32:33.824Z,8.06
2023-04-07T20:35:00.525Z,8.00
2023-04-07T20:37:27.864Z,8.01
2023-04-07T20:39:55.696Z,7.85
2023-04-07T20:42:22.350Z,7.99
2023-04-07T20:44:49.497Z,7.85
2023-04-07T20:47:16.736Z,7.47
2023-04-07T20:49:43.917Z,7.84
2023-04-07T20:52:10.667Z,7.72
2023-04-07T20:54:37.364Z,7.76
2023-04-07T20:57:03.980Z,7.68
2023-04-07T20:59:31.944Z,7.73
2023-04-07T21:01:58.836Z,7.65
2023-04-07T21:04:25.804Z,7.63
2023-04-07T21:06:52.490Z,7.61
2023-04-07T21:09:19.544Z,7.48
2023-04-07T21:11:46.389Z,7.56
2023-04-07T21:14:13.057Z,7.30
2023-04-07T21:16:39.882Z,7.42
2023-04-07T21:19:06.535Z,7.46
2023-04-07T21:21:33.215Z,7.44
2023-04-07T21:24:00.115Z,7.41
2023-04-07T21:26:27.285Z,7.28
2023-04-07T21:28:54.077Z,7.36
2023-04-07T21:31:24.557Z,7.35
2023-04-07T21:33:51.518Z,7.28
2023-04-07T21:36:18.089Z,7.23
2023-04-07T21:38:44.962Z,7.21
2023-04-07T21:41:11.663Z,7.12
2023-04-07T21:43:38.322Z,7.13
2023-04-07T21:46:05.236Z,7.03
2023-04-07T21:48:32.419Z,7.13
2023-04-07T21:50:59.085Z,6.98
2023-04-07T21:53:26.110Z,6.90
2023-04-07T21:55:53.137Z,6.99
2023-04-07T21:58:19.779Z,7.03
2023-04-07T22:00:50.285Z,6.95
2023-04-07T22:03:18.572Z,6.95
2023-04-07T22:05:46.541Z,6.93
2023-04-07T22:08:13.449Z,6.86
2023-04-07T22:10:40.387Z,6.86
2023-04-07T22:13:07.045Z,6.75
2023-04-07T22:15:33.927Z,6.67
2023-04-07T22:18:00.611Z,6.70
2023-04-07T22:20:27.971Z,6.65
2023-04-07T22:22:57.471Z,6.68
2023-04-07T22:25:25.087Z,6.68
2023-04-07T22:27:52.530Z,6.58
2023-04-07T22:30:20.449Z,6.44
2023-04-07T22:32:48.047Z,6.27
2023-04-07T22:35:14.903Z,6.38
2023-04-07T22:37:41.669Z,6.21
2023-04-07T22:40:09.037Z,6.29
2023-04-07T22:42:36.176Z,6.48
2023-04-07T22:45:03.155Z,6.44
2023-04-07T22:47:29.827Z,6.35
2023-04-07T22:49:56.531Z,6.28
2023-04-07T22:52:23.360Z,6.34
2023-04-07T22:54:49.928Z,6.35
2023-04-07T22:57:16.536Z,6.30
2023-04-07T22:59:43.287Z,6.00
2023-04-07T23:02:10.148Z,6.28
2023-04-07T23:04:37.034Z,5.77
2023-04-07T23:07:03.904Z,6.09
2023-04-07T23:09:30.588Z,6.01
2023-04-07T23:11:57.250Z,6.22
2023-04-07T23:14:23.794Z,6.09
2023-04-07T23:16:51.179Z,6.06
2023-04-07T23:19:17.837Z,6.05
2023-04-07T23:21:44.544Z,6.02
2023-04-07T23:24:11.220Z,5.98
2023-04-07T23:26:37.938Z,6.02
2023-04-07T23:29:04.754Z,6.00
2023-04-07T23:31:31.666Z,5.88
2023-04-07T23:33:59.601Z,5.97
2023-04-07T23:36:27.184Z,5.78
2023-04-07T23:38:56.779Z,5.74
2023-04-07T23:41:23.966Z,5.72
2023-04-07T23:43:51.102Z,5.62
2023-04-07T23:46:17.888Z,5.81
2023-04-07T23:48:44.572Z,5.73
2023-04-07T23:51:12.816Z,5.70
2023-04-07T23:53:39.443Z,5.72
2023-04-07T23:56:06.358Z,5.49
2023-04-07T23:58:33.064Z,5.68
